createdAt,value
2023-04-12T00:01:41.701Z,95358.44
2023-04-12T00:06:43.212Z,95336.97
2023-04-12T00:11:44.768Z,95333.34
2023-04-12T00:16:46.233Z,95331.47
2023-04-12T00:21:47.702Z,95309.19
2023-04-12T00:26:49.151Z,95298.94
2023-04-12T00:31:50.610Z,95289.66
2023-04-12T00:36:52.080Z,95283.69
2023-04-12T00:41:53.655Z,95277.28
2023-04-12T00:46:55.295Z,95265.72
2023-04-12T00:52:02.229Z,95246.88
2023-04-12T00:57:05.548Z,95247.56
2023-04-12T01:02:07.680Z,95228.56
2023-04-12T01:07:31.700Z,95216.94
2023-04-12T01:12:39.967Z,95190.84
2023-04-12T01:17:58.894Z,95199.38
2023-04-12T01:23:30.895Z,95178.72
2023-04-12T01:28:35.531Z,95171.34
2023-04-12T01:33:38.447Z,95161.22
2023-04-12T01:38:41.557Z,95151.00
2023-04-12T01:43:44.733Z,95141.81
2023-04-12T01:48:50.139Z,95138.31
2023-04-12T01:53:57.075Z,95126.28
2023-04-12T01:59:02.207Z,95114.59
2023-04-12T02:04:05.146Z,95122.72
2023-04-12T02:09:06.756Z,95118.78
2023-04-12T02:14:08.223Z,95100.91
2023-04-12T02:19:09.747Z,95072.22
2023-04-12T02:24:11.843Z,95051.91
2023-04-12T02:29:13.301Z,95050.94
2023-04-12T02:34:14.941Z,95058.69
2023-04-12T02:39:22.477Z,95086.28
2023-04-12T02:44:29.527Z,95071.75
2023-04-12T02:49:44.725Z,95034.75
2023-04-12T02:54:51.007Z,95028.28
2023-04-12T02:59:52.752Z,95013.03
2023-04-12T03:04:58.279Z,95041.75
2023-04-12T03:10:10.299Z,95047.50
2023-04-12T03:15:16.561Z,95033.69
2023-04-12T03:20:21.929Z,95031.72
2023-04-12T03:25:32.279Z,95034.81
2023-04-12T03:30:46.754Z,95019.25
2023-04-12T03:35:50.154Z,95020.06
2023-04-12T03:40:52.032Z,95031.94
2023-04-12T03:46:05.192Z,95010.03
2023-04-12T03:51:08.310Z,94988.09
2023-04-12T03:56:12.908Z,94997.00
2023-04-12T04:01:17.088Z,94990.72
2023-04-12T04:06:19.338Z,94992.88
2023-04-12T04:11:21.095Z,94982.03
2023-04-12T04:16:27.284Z,94950.31
2023-04-12T04:21:29.367Z,94920.75
2023-04-12T04:26:32.860Z,94924.88
2023-04-12T04:31:42.453Z,94938.47
2023-04-12T04:36:44.273Z,94944.72
2023-04-12T04:41:48.878Z,94937.59
2023-04-12T04:46:59.501Z,94950.81
2023-04-12T04:52:01.437Z,94944.34
2023-04-12T04:57:02.950Z,94938.09
2023-04-12T05:02:04.538Z,94931.81
2023-04-12T05:07:06.060Z,94935.59
2023-04-12T05:12:08.130Z,94928.84
2023-04-12T05:17:10.909Z,94922.56
2023-04-12T05:22:12.378Z,94905.41
2023-04-12T05:27:14.647Z,94890.72
2023-04-12T05:32:16.179Z,94880.84
2023-04-12T05:37:17.801Z,94875.56
2023-04-12T05:42:19.341Z,94874.56
2023-04-12T05:47:20.788Z,94873.75
2023-04-12T05:52:23.322Z,94878.88
2023-04-12T05:57:25.559Z,94862.19
2023-04-12T06:02:27.279Z,94852.41
2023-04-12T06:07:29.013Z,94833.41
2023-04-12T06:12:31.762Z,94827.81
2023-04-12T06:17:34.732Z,94815.91
2023-04-12T06:22:37.695Z,94804.16
2023-04-12T06:27:40.023Z,94800.19
2023-04-12T06:32:42.288Z,94795.88
2023-04-12T06:37:43.885Z,94772.75
2023-04-12T06:42:45.426Z,94757.50
2023-04-12T06:47:46.924Z,94735.47
2023-04-12T06:52:48.428Z,94731.81
2023-04-12T06:57:49.865Z,94730.09
2023-04-12T07:02:51.615Z,94733.97
2023-04-12T07:07:53.200Z,94730.84
2023-04-12T07:12:54.679Z,94732.97
2023-04-12T07:17:56.188Z,94722.59
2023-04-12T07:22:57.763Z,94713.88
2023-04-12T07:27:59.384Z,94700.38
2023-04-12T07:33:12.383Z,94705.91
2023-04-12T07:38:17.989Z,94699.66
2023-04-12T07:43:19.485Z,94690.63
2023-04-12T07:48:21.055Z,94674.66
2023-04-12T07:53:24.484Z,94670.88
2023-04-12T07:58:25.982Z,94663.31
2023-04-12T08:03:27.623Z,94660.63
2023-04-12T08:08:29.211Z,94657.94
2023-04-12T08:13:30.636Z,94650.50
2023-04-12T08:18:32.130Z,94634.34
2023-04-12T08:23:33.673Z,94643.25
2023-04-12T08:28:35.692Z,94632.59
2023-04-12T08:33:37.902Z,94622.38
2023-04-12T08:38:45.781Z,94623.16
2023-04-12T08:43:47.898Z,94616.47
2023-04-12T08:48:51.755Z,94631.66
2023-04-12T08:53:53.274Z,94645.06
2023-04-12T08:58:55.174Z,94639.78
2023-04-12T09:03:56.939Z,94617.31
2023-04-12T09:08:58.837Z,94623.13
2023-04-12T09:14:00.449Z,94611.84
2023-04-12T09:19:02.183Z,94608.19
2023-04-12T09:24:07.601Z,94615.13
2023-04-12T09:29:23.697Z,94610.06
2023-04-12T09:34:26.629Z,94607.16
2023-04-12T09:39:33.564Z,94615.53
2023-04-12T09:44:35.943Z,94613.09
2023-04-12T09:49:42.354Z,94609.19
2023-04-12T09:54:46.934Z,94597.97
2023-04-12T09:59:49.612Z,94591.47
2023-04-12T10:04:51.941Z,94607.25
2023-04-12T10:09:53.651Z,94594.31
2023-04-12T10:14:55.804Z,94574.44
2023-04-12T10:19:57.606Z,94584.44
2023-04-12T10:24:59.718Z,94587.34
2023-04-12T10:30:22.940Z,94585.31
2023-04-12T10:35:24.507Z,94586.97
2023-04-12T10:40:26.025Z,94608.50
2023-04-12T10:45:33.673Z,94612.53
2023-04-12T10:50:35.274Z,94600.81
2023-04-12T10:55:40.397Z,94605.69
2023-04-12T11:00:57.074Z,94600.59
2023-04-12T11:06:04.573Z,94603.75
2023-04-12T11:11:34.626Z,94589.59
2023-04-12T11:17:07.973Z,94592.88
2023-04-12T11:22:11.577Z,94586.97
2023-04-12T11:27:15.647Z,94605.22
2023-04-12T11:32:18.620Z,94610.56
2023-04-12T11:37:20.656Z,94603.16
2023-04-12T11:42:24.552Z,94611.56
2023-04-12T11:47:26.307Z,94595.78
2023-04-12T11:52:29.855Z,94595.75
2023-04-12T11:57:31.375Z,94579.16
2023-04-12T12:02:40.723Z,94586.31
2023-04-12T12:07:48.020Z,94580.34
2023-04-12T12:12:49.488Z,94580.38
2023-04-12T12:17:51.247Z,94581.78
2023-04-12T12:22:52.756Z,94572.16
2023-04-12T12:27:57.551Z,94564.56
2023-04-12T12:32:59.108Z,94582.41
2023-04-12T12:38:00.581Z,94591.00
2023-04-12T12:43:02.195Z,94583.25
2023-04-12T12:48:04.625Z,94572.59
2023-04-12T12:53:06.317Z,94565.97
2023-04-12T12:58:08.554Z,94558.69
2023-04-12T13:03:10.279Z,94573.28
2023-04-12T13:08:11.876Z,94567.63
2023-04-12T13:13:13.386Z,94561.47
2023-04-12T13:18:14.905Z,94554.53
2023-04-12T13:23:16.353Z,94534.22
2023-04-12T13:28:17.768Z,94540.16
2023-04-12T13:33:21.880Z,94539.13
2023-04-12T13:38:23.657Z,94525.84
2023-04-12T13:43:25.191Z,94522.75
2023-04-12T13:48:26.646Z,94516.63
2023-04-12T13:53:28.229Z,94525.69
2023-04-12T13:58:29.684Z,94514.41
2023-04-12T14:03:31.173Z,94510.72
2023-04-12T14:08:33.345Z,94495.75
2023-04-12T14:13:34.854Z,94485.69
2023-04-12T14:18:36.376Z,94495.34
2023-04-12T14:23:37.935Z,94484.88
2023-04-12T14:28:39.458Z,94481.00
2023-04-12T14:33:40.857Z,94474.44
2023-04-12T14:38:42.266Z,94465.75
2023-04-12T14:43:43.705Z,94451.59
2023-04-12T14:48:45.195Z,94463.50
2023-04-12T14:53:46.828Z,94460.91
2023-04-12T14:58:48.727Z,94467.66
2023-04-12T15:03:50.847Z,94466.03
2023-04-12T15:08:52.661Z,94455.22
2023-04-12T15:13:54.971Z,94462.63
2023-04-12T15:18:57.992Z,94466.50
2023-04-12T15:24:00.579Z,94471.22
2023-04-12T15:29:02.502Z,94468.31
2023-04-12T15:34:03.985Z,94470.19
2023-04-12T15:39:05.386Z,94475.47
2023-04-12T15:44:08.171Z,94471.53
2023-04-12T15:49:10.926Z,94473.41
2023-04-12T15:54:12.448Z,94478.88
2023-04-12T15:59:13.955Z,94490.41
2023-04-12T16:04:15.450Z,94480.53
2023-04-12T16:09:17.029Z,94478.53
2023-04-12T16:14:18.608Z,94483.09
2023-04-12T16:19:20.292Z,94482.25
2023-04-12T16:24:21.887Z,94476.94
2023-04-12T16:29:23.397Z,94481.78
2023-04-12T16:34:24.836Z,94476.81
2023-04-12T16:39:26.366Z,94489.81
2023-04-12T16:44:27.828Z,94490.38
2023-04-12T16:49:29.328Z,94491.25
2023-04-12T16:54:30.906Z,94492.31
2023-04-12T16:59:32.584Z,94497.34
2023-04-12T17:04:34.555Z,94499.13
2023-04-12T17:09:36.180Z,94494.59
2023-04-12T17:14:37.646Z,94502.97
2023-04-12T17:19:39.117Z,94487.94
2023-04-12T17:24:40.544Z,94487.28
2023-04-12T17:29:42.015Z,94476.66
2023-04-12T17:34:43.473Z,94481.19
2023-04-12T17:39:44.981Z,94470.97
2023-04-12T17:44:47.178Z,94467.69
2023-04-12T17:49:49.382Z,94464.66
2023-04-12T17:54:50.944Z,94473.38
2023-04-12T17:59:52.392Z,94468.72
2023-04-12T18:04:53.845Z,94474.59
2023-04-12T18:09:55.351Z,94487.44
2023-04-12T18:14:56.905Z,94489.69
2023-04-12T18:19:59.061Z,94497.09
2023-04-12T18:25:01.507Z,94507.72
2023-04-12T18:30:03.368Z,94519.06
2023-04-12T18:35:05.307Z,94529.63
2023-04-12T18:40:07.176Z,94532.25
2023-04-12T18:45:09.195Z,94542.50
2023-04-12T18:50:10.755Z,94586.59
2023-04-12T18:55:12.183Z,94601.31
2023-04-12T19:00:13.937Z,94611.78
2023-04-12T19:05:15.650Z,94628.56
2023-04-12T19:10:18.333Z,94645.88
2023-04-12T19:15:20.674Z,94643.91
2023-04-12T19:20:22.506Z,94649.53
2023-04-12T19:25:24.650Z,94647.19
2023-04-12T19:30:27.210Z,94647.31
2023-04-12T19:35:30.562Z,94635.22
2023-04-12T19:40:33.380Z,94657.66
2023-04-12T19:45:35.747Z,94665.19
2023-04-12T19:50:38.585Z,94667.00
2023-04-12T19:55:40.884Z,94672.84
2023-04-12T20:00:42.789Z,94665.47
2023-04-12T20:05:44.987Z,94666.88
2023-04-12T20:10:48.217Z,94671.84
2023-04-12T20:15:50.619Z,94673.13
2023-04-12T20:20:54.558Z,94681.56
2023-04-12T20:25:57.481Z,94670.66
2023-04-12T20:31:03.004Z,94660.31
2023-04-12T20:36:05.660Z,94655.72
2023-04-12T20:41:07.491Z,94659.03
2023-04-12T20:46:09.476Z,94644.94
2023-04-12T20:51:12.269Z,94633.56
2023-04-12T20:56:15.259Z,94626.50
2023-04-12T21:01:16.915Z,94623.91
2023-04-12T21:06:18.512Z,94627.69
2023-04-12T21:11:20.067Z,94636.22
2023-04-12T21:16:21.607Z,94631.97
2023-04-12T21:21:23.096Z,94628.41
2023-04-12T21:26:24.582Z,94629.84
2023-04-12T21:31:26.125Z,94638.66
2023-04-12T21:36:27.849Z,94693.00
2023-04-12T21:41:29.386Z,94735.00
2023-04-12T21:46:30.818Z,94748.72
2023-04-12T21:51:32.386Z,94766.50
2023-04-12T21:56:33.892Z,94794.09
2023-04-12T22:01:35.440Z,94770.19
2023-04-12T22:06:37.015Z,94788.22
2023-04-12T22:11:38.454Z,94803.84
2023-04-12T22:16:39.998Z,94810.66
2023-04-12T22:21:41.493Z,94818.25
2023-04-12T22:26:42.989Z,94820.75
2023-04-12T22:31:47.430Z,94835.22
2023-04-12T22:36:49.066Z,94830.09
2023-04-12T22:41:50.889Z,94837.34
2023-04-12T22:46:54.361Z,94834.81
2023-04-12T22:51:56.408Z,94832.94
2023-04-12T22:56:57.890Z,94823.69
2023-04-12T23:01:59.393Z,94813.09
2023-04-12T23:07:01.008Z,94828.03
2023-04-12T23:12:02.571Z,94836.19
2023-04-12T23:17:04.016Z,94832.25
2023-04-12T23:22:05.431Z,94831.81
2023-04-12T23:27:06.862Z,94820.09
2023-04-12T23:32:08.305Z,94821.59
2023-04-12T23:37:09.836Z,94820.78
2023-04-12T23:42:11.355Z,94822.59
2023-04-12T23:47:12.855Z,94831.53
2023-04-12T23:52:15.415Z,94831.84
2023-04-12T23:57:16.853Z,94826.91
